createdAt,value
2022-12-01T00:01:12.970Z,101487.81
2022-12-01T00:06:18.786Z,101487.18
2022-12-01T00:11:21.866Z,101485.55
2022-12-01T00:16:25.113Z,101485.66
2022-12-01T00:21:28.695Z,101487.83
2022-12-01T00:26:31.796Z,101491.91
2022-12-01T00:31:35.347Z,101493.33
2022-12-01T00:36:39.037Z,101495.47
2022-12-01T00:41:42.344Z,101492.27
2022-12-01T00:46:45.552Z,101491.89
2022-12-01T00:51:48.657Z,101489.86
2022-12-01T00:56:51.970Z,101486.73
2022-12-01T01:01:55.330Z,101482.20
2022-12-01T01:06:58.898Z,101480.26
2022-12-01T01:12:02.108Z,101478.00
2022-12-01T01:17:05.801Z,101478.16
2022-12-01T01:22:09.037Z,101473.65
2022-12-01T01:27:12.346Z,101473.89
2022-12-01T01:32:15.452Z,101469.86
2022-12-01T01:37:18.866Z,101464.65
2022-12-01T01:42:22.384Z,101468.70
2022-12-01T01:47:31.117Z,101462.55
2022-12-01T01:52:38.831Z,101466.56
2022-12-01T01:57:44.404Z,101466.70
2022-12-01T02:02:50.265Z,101455.02
2022-12-01T02:07:56.790Z,101453.36
2022-12-01T02:13:12.453Z,101457.42
2022-12-01T02:18:21.497Z,101457.52
2022-12-01T02:23:43.138Z,101453.16
2022-12-01T02:29:24.542Z,101459.61
2022-12-01T02:34:37.478Z,101460.86
2022-12-01T02:40:27.074Z,101463.05
2022-12-01T02:45:40.083Z,101466.82
2022-12-01T02:50:46.387Z,101471.28
2022-12-01T02:55:52.876Z,101469.89
2022-12-01T03:01:08.375Z,101470.61
2022-12-01T03:06:23.975Z,101466.98
2022-12-01T03:11:38.041Z,101466.97
2022-12-01T03:16:47.490Z,101464.22
2022-12-01T03:22:14.458Z,101461.85
2022-12-01T03:27:22.996Z,101465.17
2022-12-01T03:32:32.653Z,101458.70
2022-12-01T03:37:59.512Z,101461.73
2022-12-01T03:43:08.851Z,101466.63
2022-12-01T03:48:12.689Z,101468.64
2022-12-01T03:53:23.985Z,101466.64
2022-12-01T03:58:34.594Z,101467.20
2022-12-01T04:03:38.184Z,101469.54
2022-12-01T04:08:41.699Z,101469.02
2022-12-01T04:13:45.010Z,101467.00
2022-12-01T04:18:48.422Z,101464.20
2022-12-01T04:24:01.217Z,101463.14
2022-12-01T04:29:08.329Z,101460.96
2022-12-01T04:34:11.873Z,101459.24
2022-12-01T04:39:15.289Z,101453.94
2022-12-01T04:44:18.703Z,101457.68
2022-12-01T04:49:22.835Z,101460.02
2022-12-01T04:54:26.343Z,101461.34
2022-12-01T04:59:29.754Z,101463.50
2022-12-01T05:04:34.500Z,101461.23
2022-12-01T05:09:39.045Z,101465.91
2022-12-01T05:14:42.453Z,101465.62
2022-12-01T05:20:04.655Z,101465.61
2022-12-01T05:25:08.429Z,101465.23
2022-12-01T05:30:12.149Z,101465.39
2022-12-01T05:35:50.996Z,101467.02
2022-12-01T05:40:56.249Z,101468.71
2022-12-01T05:45:59.633Z,101472.30
2022-12-01T05:51:14.241Z,101473.86
2022-12-01T05:56:17.496Z,101472.45
2022-12-01T06:01:20.859Z,101475.83
2022-12-01T06:06:24.272Z,101476.61
2022-12-01T06:11:27.683Z,101475.86
2022-12-01T06:16:31.155Z,101479.11
2022-12-01T06:21:34.513Z,101476.62
2022-12-01T06:26:37.922Z,101478.56
2022-12-01T06:31:42.518Z,101481.38
2022-12-01T06:36:45.979Z,101483.17
2022-12-01T06:41:49.925Z,101483.45
2022-12-01T06:46:53.214Z,101485.86
2022-12-01T06:51:56.732Z,101488.88
2022-12-01T06:57:00.041Z,101487.15
2022-12-01T07:02:03.841Z,101484.95
2022-12-01T07:07:07.482Z,101481.94
2022-12-01T07:12:10.906Z,101480.79
2022-12-01T07:17:14.309Z,101483.23
2022-12-01T07:22:17.719Z,101489.70
2022-12-01T07:27:21.167Z,101491.16
2022-12-01T07:32:24.549Z,101489.94
2022-12-01T07:37:27.962Z,101494.92
2022-12-01T07:42:31.379Z,101492.58
2022-12-01T07:47:34.683Z,101491.02
2022-12-01T07:52:38.199Z,101493.22
2022-12-01T07:57:41.715Z,101491.65
2022-12-01T08:02:45.204Z,101496.80
2022-12-01T08:07:48.788Z,101491.83
2022-12-01T08:12:52.160Z,101496.05
2022-12-01T08:17:55.469Z,101493.19
2022-12-01T08:23:02.878Z,101487.42
2022-12-01T08:28:06.187Z,101496.77
2022-12-01T08:33:09.598Z,101492.38
2022-12-01T08:38:13.013Z,101491.52
2022-12-01T08:43:49.426Z,101490.17
2022-12-01T08:48:42.058Z,101491.99
2022-12-01T08:53:50.283Z,101495.25
2022-12-01T08:58:55.035Z,101497.17
2022-12-01T09:04:06.372Z,101500.94
2022-12-01T09:09:19.593Z,101500.30
2022-12-01T09:14:23.751Z,101495.73
2022-12-01T09:19:28.777Z,101494.80
2022-12-01T09:24:32.062Z,101490.76
2022-12-01T09:29:35.475Z,101486.27
2022-12-01T09:34:38.786Z,101480.73
2022-12-01T09:39:42.200Z,101481.27
2022-12-01T09:44:52.825Z,101475.27
2022-12-01T09:49:58.550Z,101470.38
2022-12-01T09:55:02.745Z,101468.20
2022-12-01T10:00:09.272Z,101464.98
2022-12-01T10:05:17.529Z,101464.66
2022-12-01T10:10:33.603Z,101464.29
2022-12-01T10:15:49.408Z,101464.68
2022-12-01T10:21:20.776Z,101461.21
2022-12-01T10:26:55.217Z,101461.67
2022-12-01T10:32:04.675Z,101454.10
2022-12-01T10:37:19.193Z,101454.65
2022-12-01T10:42:25.322Z,101454.39
2022-12-01T10:47:29.558Z,101454.85
2022-12-01T10:52:39.110Z,101452.41
2022-12-01T10:57:45.872Z,101451.05
2022-12-01T11:02:49.721Z,101449.81
2022-12-01T11:07:53.523Z,101453.87
2022-12-01T11:13:01.775Z,101447.89
2022-12-01T11:18:20.139Z,101443.02
2022-12-01T11:23:29.963Z,101441.00
2022-12-01T11:28:35.056Z,101441.23
2022-12-01T11:33:47.480Z,101435.70
2022-12-01T11:39:04.102Z,101435.80
2022-12-01T11:44:43.591Z,101433.92
2022-12-01T11:49:47.450Z,101434.84
2022-12-01T11:55:05.565Z,101428.86
2022-12-01T12:00:14.502Z,101427.23
2022-12-01T12:05:46.055Z,101423.64
2022-12-01T12:10:49.340Z,101416.55
2022-12-01T12:15:55.852Z,101417.33
2022-12-01T12:21:17.803Z,101424.17
2022-12-01T12:26:30.839Z,101418.73
2022-12-01T12:31:39.986Z,101415.84
2022-12-01T12:36:59.783Z,101412.15
2022-12-01T12:42:13.640Z,101409.52
2022-12-01T12:47:43.072Z,101405.46
2022-12-01T12:52:52.011Z,101397.61
2022-12-01T12:58:21.634Z,101391.15
2022-12-01T13:03:57.306Z,101390.12
2022-12-01T13:09:12.697Z,101387.09
2022-12-01T13:14:39.783Z,101381.64
2022-12-01T13:19:45.709Z,101377.27
2022-12-01T13:24:49.560Z,101375.17
2022-12-01T13:29:55.040Z,101377.73
2022-12-01T13:34:59.767Z,101376.95
2022-12-01T13:40:27.860Z,101377.63
2022-12-01T13:45:36.904Z,101374.98
2022-12-01T13:50:44.002Z,101381.30
2022-12-01T13:55:58.578Z,101381.77
2022-12-01T14:01:20.285Z,101380.60
2022-12-01T14:06:28.751Z,101377.55
2022-12-01T14:11:34.947Z,101377.29
2022-12-01T14:16:53.639Z,101378.85
2022-12-01T14:21:57.857Z,101369.67
2022-12-01T14:27:02.887Z,101367.10
2022-12-01T14:32:09.473Z,101365.23
2022-12-01T14:37:17.804Z,101364.00
2022-12-01T14:42:57.667Z,101359.48
2022-12-01T14:48:06.460Z,101359.81
2022-12-01T14:53:32.762Z,101354.59
2022-12-01T14:58:36.276Z,101353.50
2022-12-01T15:03:39.583Z,101355.20
2022-12-01T15:08:53.295Z,101355.67
2022-12-01T15:14:02.938Z,101353.60
2022-12-01T15:19:23.070Z,101353.91
2022-12-01T15:24:30.860Z,101354.07
2022-12-01T15:29:45.902Z,101349.73
2022-12-01T15:34:53.624Z,101357.13
2022-12-01T15:40:47.782Z,101352.69
2022-12-01T15:45:29.581Z,101353.23
2022-12-01T15:50:45.976Z,101350.96
2022-12-01T15:55:57.138Z,101349.86
2022-12-01T16:01:10.239Z,101349.94
2022-12-01T16:06:14.104Z,101342.01
2022-12-01T16:11:19.274Z,101345.66
2022-12-01T16:16:39.352Z,101345.59
2022-12-01T16:21:46.666Z,101347.39
2022-12-01T16:26:53.872Z,101351.44
2022-12-01T16:32:26.150Z,101353.63
2022-12-01T16:37:30.084Z,101355.55
2022-12-01T16:42:33.288Z,101358.44
2022-12-01T16:47:36.708Z,101356.25
2022-12-01T16:52:44.683Z,101360.52
2022-12-01T16:57:48.752Z,101360.83
2022-12-01T17:02:53.955Z,101360.43
2022-12-01T17:07:57.506Z,101359.17
2022-12-01T17:13:01.038Z,101367.55
2022-12-01T17:18:04.710Z,101367.18
2022-12-01T17:23:08.608Z,101358.98
2022-12-01T17:28:12.301Z,101357.41
2022-12-01T17:33:15.717Z,101354.11
2022-12-01T17:38:19.131Z,101344.91
2022-12-01T17:43:23.468Z,101340.84
2022-12-01T17:48:27.183Z,101345.64
2022-12-01T17:53:30.497Z,101343.95
2022-12-01T17:58:34.008Z,101346.60
2022-12-01T18:03:37.320Z,101348.11
2022-12-01T18:08:41.966Z,101346.45
2022-12-01T18:13:48.202Z,101345.99
2022-12-01T18:18:51.552Z,101342.51
2022-12-01T18:23:57.486Z,101336.77
2022-12-01T18:29:07.437Z,101341.05
2022-12-01T18:34:12.238Z,101344.09
2022-12-01T18:39:16.777Z,101343.52
2022-12-01T18:44:20.292Z,101345.35
2022-12-01T18:49:23.709Z,101346.13
2022-12-01T18:54:27.226Z,101347.50
2022-12-01T18:59:30.738Z,101345.32
2022-12-01T19:04:34.054Z,101345.80
2022-12-01T19:09:37.460Z,101341.77
2022-12-01T19:14:40.973Z,101340.77
2022-12-01T19:19:44.593Z,101345.86
2022-12-01T19:24:50.428Z,101348.73
2022-12-01T19:29:54.150Z,101354.10
2022-12-01T19:34:57.911Z,101351.91
2022-12-01T19:40:01.321Z,101352.89
2022-12-01T19:45:06.962Z,101351.92
2022-12-01T19:50:10.909Z,101345.06
2022-12-01T19:55:14.123Z,101345.38
2022-12-01T20:00:18.547Z,101348.17
2022-12-01T20:05:21.763Z,101348.81
2022-12-01T20:10:25.279Z,101350.05
2022-12-01T20:15:28.896Z,101354.06
2022-12-01T20:20:32.207Z,101350.21
2022-12-01T20:25:36.029Z,101348.14
2022-12-01T20:30:40.879Z,101344.72
2022-12-01T20:35:44.498Z,101343.27
2022-12-01T20:40:51.338Z,101345.20
2022-12-01T20:45:55.139Z,101353.52
2022-12-01T20:51:03.188Z,101350.45
2022-12-01T20:56:09.133Z,101349.86
2022-12-01T21:01:15.809Z,101351.27
2022-12-01T21:06:20.773Z,101350.42
2022-12-01T21:11:47.196Z,101353.11
2022-12-01T21:16:55.220Z,101356.44
2022-12-01T21:21:59.147Z,101362.65
2022-12-01T21:27:14.023Z,101358.29
2022-12-01T21:32:19.078Z,101365.81
2022-12-01T21:37:24.886Z,101359.68
2022-12-01T21:42:31.355Z,101360.29
2022-12-01T21:47:35.366Z,101362.00
2022-12-01T21:52:42.050Z,101361.60
2022-12-01T21:57:47.312Z,101363.42
2022-12-01T22:02:52.999Z,101362.89
2022-12-01T22:08:13.280Z,101358.66
2022-12-01T22:13:16.589Z,101356.06
2022-12-01T22:18:25.015Z,101350.92
2022-12-01T22:23:36.420Z,101351.83
2022-12-01T22:28:39.834Z,101353.88
2022-12-01T22:33:43.146Z,101351.55
2022-12-01T22:38:46.558Z,101352.39
2022-12-01T22:43:52.226Z,101345.62
2022-12-01T22:48:57.070Z,101344.57
2022-12-01T22:54:22.295Z,101342.36
2022-12-01T22:59:36.152Z,101338.03
2022-12-01T23:04:41.697Z,101330.44
2022-12-01T23:09:45.334Z,101331.59
2022-12-01T23:14:51.941Z,101327.26
2022-12-01T23:20:24.927Z,101326.20
2022-12-01T23:25:28.854Z,101327.38
2022-12-01T23:30:32.473Z,101326.02
2022-12-01T23:35:45.824Z,101325.69
2022-12-01T23:40:51.524Z,101322.00
2022-12-01T23:46:18.239Z,101317.24
2022-12-01T23:51:31.178Z,101319.17
2022-12-01T23:56:39.397Z,101314.89
